General Conesa, Argentina
Current Conditions -  °F | °C
As of 11:00 AM on Saturday 20 Dec 2014 (Local Time) from SAZN Reporting Station
Clear Clear  
Wind Chill: 59°   Ceiling: Unl
Heat Index: 59°   Visibility: 6mi
Dew Point: 21°   Wind: 8mph
Humidity: 23%   Direction: 200°SSW
Pressure: 29.83"   Gusts: NA
Location:  40.1°S, 64.43°W
Report Text: SAZN 201400Z 20007KT CAVOK 15/M06 Q1010
Loading
Personal Weather Stations






























Interactive Weather Map New forecast layout! Learn more

10-Day Weather Forecast

Advertisements
Track Severe Weather on mobile